Fort Good Hope Airport
CYGH : now visible

Airfield :











YOU CAN JOIN US ON...

 
LOGIN :

Register | Disclaimer

   EN    FR    IT 

 









Legend :    VFR   Marginal VFR   IFR   Intensive IFR   Very Intensive IFR
Visi :
Ceiling :
>= 8 km
>= 3000ft
5 to 8 km
1000 to 3000 ft
1500m to 5 km
500 to 1000 ft
800 to 1500m
200 to 500 ft
< 800m
< 200 ft
Symbols :   Thunderstorms  Fog  Heavy snow  Heavy precipitations  Wind > 20 kt






- Airport Elevation : 268 ft
- IATA code : YGH


CYGH - Fort Good Hope

CURRENT METAR :
  • 171500Z 12003KT 25SM FEW060 FEW240 M32/M35 A3048 RMK SC1CI1 SC TR SLP338

EXPIRED METARs :
  • 171400Z 08002KT 25SM FEW060 M34/M37 A3046 RMK SC1 SC TR 41/SNW CVR/TRACE LOOSE SLP332

TAF TAF CYGH
Valid from the 17 at 15:00 until the 18 at 00:00 UTC


171510Z 1715/1724 07005KT P6SM FEW060
TEMPO 1715/1718 6SM IC BR SCT020
FM171800 07005KT P6SM SCT020
TEMPO 1718/1724 5SM -SN BR BKN020 RMK NXT FCST BY 171800Z



MET'MAP, your aeronautical weather chart ! - Copyright ORBIFLY December 2007 - Disclaimer

ORBIFLY MET'MAP TEAM :

Programming & Development : Alexandra Zaïnal
Concept & original design : Baudouin d'Aumeries
Assistance for programming : Marc-Olivier Méhu
Technical & hardware support : Manuel Goepfert

Contact : metmap@orbifly.com




SOURCES & CREDITS :

   NOAA       Earth
Advisory